Main page
METAR-TAF:

METAR-TAF

Airports :

Cologne, Germany

Cologne Bonn Airport

latitude: 50-52N, longitude: 007-10E, elevation: 91 m

Current weather observation

The report was made 29 minutes ago, at 21:50 UTC
Wind 3 kt from the East, varying between East/Northeast and Southeast
Temperature 11°C
Humidity 40%
Pressure 1022 hPa
Visibility 10 km or more
no clouds below 1500 m and no cumulonimbus

METAR: EDDK 272150Z 09003KT 060V130 CAVOK 11/M02 Q1022 NOSIG

Time: 00:19 (22:19 UTC)

Forecast

The report was made 5 hours and 19 minutes ago, at 17:00 UTC
Forecast valid from 27 at 18 UTC to 28 at 24 UTC
Wind 7 kt from the Southeast
Visibility 10 km or more
no clouds below 1500 m and no cumulonimbus
Becoming
from 28 at 09 UTC to 28 at 12 UTC
Wind 8 kt from the West/Southwest

TAF: EDDK 271700Z 2718/2824 14007KT CAVOK BECMG 2809/2812 24008KT

Weather observations and forecasts of more than 4000 airports (METAR and TAF reports).

The available stations are represented by yellow and red dots on the map.

Hover mouse over dot to see the name of the station.

Then click to see weather observations and forecasts.

To change the map : click on the green buttons with a black cross to zoom in, on the green button with a dash to zoom out, or on the green arrows for adjacent maps.


METAR-TAF: